Daily Reports
[Select Refresh to Update]
Updated Automatically by Ambient Software's Virtual Weather Station  V14.01


Daily Archive Report

Parameter                   Max   Max Time        Min   Min Time    Average
Wind Direction              352    10:12am         28    12:07am        270
Wind Speed                 24.0    12:00am        0.0    12:05am        5.8
Wind Gust                  24.0    12:00am        1.0     1:00am       20.5
Humidity                     70     4:08am         51    12:00am         64
Out Temp                   55.4    12:00am       38.2     8:32am       43.4
Raw Barometer             30.24    11:29am      29.70    12:00am      29.99
Dew Point                  38.1    12:03am       26.6    11:47am       32.0


Today's  Data File

1/29/15
Time         Wind Dir   Wind Spd  Wind Gust   Humidity       Temp  Raw Barom  Dew Point Barom Rate Wind Spd H WindGust H Humidity H Temp Out H Humidity L Temp Out L  DailyRain   24HrRain
                            mph        mph          %         F         in         F      in/hr        mph        mph          %         F          %         F         in         in
12:00am           245        1.0       24.0         51       55.4      29.70       37.6      0.038       24.0       24.0         51       55.4         51       55.4       0.00       0.00
12:05am           268        8.0        8.0         52       55.1      29.70       37.8      0.035       24.0       24.0         52       55.4         51       55.1       0.00       0.00
12:10am           254        3.0       16.0         52       54.8      29.70       37.5      0.032       24.0       24.0         52       55.4         51       54.8       0.00       0.00
12:15am           272        9.0       19.0         52       54.7      29.71       37.4      0.038       24.0       24.0         52       55.4         51       54.7       0.00       0.00
12:20am           251        5.0       19.0         53       54.4      29.71       37.6      0.035       24.0       24.0         53       55.4         51       54.4       0.00       0.00
12:25am           242        3.0       19.0         54       54.1      29.71       37.8      0.032       24.0       24.0         54       55.4         51       54.1       0.00       0.00
12:30am           249        0.0       19.0         54       53.6      29.73       37.4      0.046       24.0       24.0         54       55.4         51       53.6       0.00       0.00
12:35am           282        0.0       19.0         55       53.5      29.73       37.7      0.042       24.0       24.0         55       55.4         51       53.5       0.00       0.00
12:40am           282        1.0       19.0         55       53.1      29.73       37.4      0.039       24.0       24.0         55       55.4         51       53.1       0.00       0.00
12:45am           166        2.0       19.0         56       52.8      29.75       37.6      0.052       24.0       24.0         56       55.4         51       52.8       0.00       0.00
12:50am           242        2.0       19.0         57       52.3      29.75       37.5      0.048       24.0       24.0         57       55.4         51       52.3       0.00       0.00
12:55am           248        5.0       19.0         57       52.0      29.75       37.3      0.044       24.0       24.0         57       55.4         51       52.0       0.00       0.00
1:00am            265        1.0       19.0         58       51.7      29.75       37.4      0.048       24.0       24.0         58       55.4         51       51.7       0.00       0.00
1:05am            280        5.0       12.0         58       51.3      29.75       37.0      0.044       24.0       24.0         58       55.4         51       51.3       0.00       0.00
1:10am            228        1.0       16.0         59       50.8      29.75       37.0      0.040       24.0       24.0         59       55.4         51       50.8       0.00       0.00
1:15am            261        1.0       16.0         60       50.4      29.76       37.1      0.047       24.0       24.0         60       55.4         51       50.4       0.00       0.00
1:20am            258        3.0       16.0         61       49.9      29.76       37.0      0.043       24.0       24.0         61       55.4         51       49.9       0.00       0.00
1:25am            256        4.0       16.0         62       49.5      29.76       37.0      0.040       24.0       24.0         62       55.4         51       49.5       0.00       0.00
1:30am            247        3.0       16.0         62       49.4      29.78       36.9      0.050       24.0       24.0         62       55.4         51       49.4       0.00       0.00
1:35am            264        1.0       16.0         63       49.1      29.78       37.1      0.046       24.0       24.0         63       55.4         51       49.1       0.00       0.00
1:40am            265        5.0       16.0         63       48.9      29.78       36.9      0.043       24.0       24.0         63       55.4         51       48.9       0.00       0.00
1:45am            262        4.0       16.0         64       48.5      29.79       36.9      0.057       24.0       24.0         64       55.4         51       48.5       0.00       0.00
1:50am            149        3.0       16.0         64       48.3      29.79       36.7      0.052       24.0       24.0         64       55.4         51       48.3       0.00       0.00
1:55am            230        6.0       18.0         65       48.0      29.79       36.8      0.048       24.0       24.0         65       55.4         51       48.0       0.00       0.00
2:00am            230       13.0       18.0         65       47.7      29.83       36.5      0.075       24.0       24.0         65       55.4         51       47.7       0.00       0.00
2:05am            268        2.0       13.0         66       47.6      29.83       36.8      0.069       24.0       24.0         66       55.4         51       47.6       0.00       0.00
2:10am            128        2.0       13.0         66       47.6      29.83       36.8      0.063       24.0       24.0         66       55.4         51       47.6       0.00       0.00
2:15am            166        3.0       13.0         66       47.4      29.84       36.6      0.073       24.0       24.0         66       55.4         51       47.4       0.00       0.00
2:20am            238        9.0       17.0         66       47.1      29.84       36.3      0.067       24.0       24.0         66       55.4         51       47.1       0.00       0.00
2:25am            258        3.0       17.0         66       47.0      29.84       36.2      0.062       24.0       24.0         66       55.4         51       47.0       0.00       0.00
2:30am            279        6.0       17.0         66       46.8      29.85       36.1      0.064       24.0       24.0         66       55.4         51       46.8       0.00       0.00
2:35am            279        6.0       17.0         66       46.7      29.85       36.0      0.059       24.0       24.0         66       55.4         51       46.7       0.00       0.00
2:40am            159        6.0       22.0         66       46.7      29.85       36.0      0.054       24.0       24.0         66       55.4         51       46.7       0.00       0.00
2:45am            306        2.0       22.0         66       46.7      29.86       36.0      0.059       24.0       24.0         66       55.4         51       46.7       0.00       0.00
2:50am            276       17.0       22.0         66       46.5      29.86       35.8      0.054       24.0       24.0         66       55.4         51       46.5       0.00       0.00
2:55am            251        3.0       22.0         66       46.4      29.86       35.7      0.049       24.0       24.0         66       55.4         51       46.4       0.00       0.00
3:00am            231        6.0       22.0         66       46.1      29.88       35.4      0.064       24.0       24.0         66       55.4         51       46.1       0.00       0.00
3:05am            269        6.0       13.0         66       46.0      29.88       35.3      0.059       24.0       24.0         66       55.4         51       46.0       0.00       0.00
3:10am            160        4.0       13.0         66       45.8      29.88       35.1      0.054       24.0       24.0         66       55.4         51       45.8       0.00       0.00
3:15am            240        2.0       13.0         66       45.7      29.89       35.0      0.068       24.0       24.0         66       55.4         51       45.7       0.00       0.00
3:20am            264       10.0       18.0         66       45.7      29.89       35.0      0.062       24.0       24.0         66       55.4         51       45.7       0.00       0.00
3:25am            268        6.0       24.0         66       45.4      29.89       34.7      0.057       24.0       24.0         66       55.4         51       45.4       0.00       0.00
3:30am            266        5.0       24.0         67       45.4      29.89       35.1      0.046       24.0       24.0         67       55.4         51       45.4       0.00       0.00
3:35am            175        3.0       24.0         67       45.2      29.89       34.9      0.042       24.0       24.0         67       55.4         51       45.2       0.00       0.00
3:40am            228        0.0       24.0         67       45.1      29.89       34.8      0.039       24.0       24.0         67       55.4         51       45.1       0.00       0.00
3:45am            271        3.0       24.0         68       45.1      29.92       35.2      0.067       24.0       24.0         68       55.4         51       45.1       0.00       0.00
3:50am            255       10.0       24.0         68       45.1      29.92       35.2      0.062       24.0       24.0         68       55.4         51       45.1       0.00       0.00
3:55am            279        4.0       24.0         69       44.9      29.92       35.4      0.057       24.0       24.0         69       55.4         51       44.9       0.00       0.00
4:00am            262        1.0       24.0         69       44.9      29.93       35.4      0.061       24.0       24.0         69       55.4         51       44.9       0.00       0.00
4:05am            231        7.0       11.0         69       44.8      29.93       35.3      0.056       24.0       24.0         69       55.4         51       44.8       0.00       0.00
4:10am            255        5.0       12.0         70       44.8      29.93       35.6      0.052       24.0       24.0         70       55.4         51       44.8       0.00       0.00
4:15am            304        8.0       17.0         70       44.6      29.93       35.4      0.054       24.0       24.0         70       55.4         51       44.6       0.00       0.00
4:20am            245        2.0       17.0         70       44.5      29.93       35.3      0.049       24.0       24.0         70       55.4         51       44.5       0.00       0.00
4:25am            231        2.0       17.0         70       44.5      29.93       35.3      0.045       24.0       24.0         70       55.4         51       44.5       0.00       0.00
4:30am            261        4.0       17.0         70       44.1      29.94       35.0      0.050       24.0       24.0         70       55.4         51       44.1       0.00       0.00
4:35am            254        6.0       17.0         70       43.6      29.94       34.5      0.046       24.0       24.0         70       55.4         51       43.6       0.00       0.00
4:40am            283       10.0       17.0         70       43.1      29.94       34.0      0.042       24.0       24.0         70       55.4         51       43.1       0.00       0.00
4:45am            248       13.0       17.0         68       42.3      29.97       32.5      0.065       24.0       24.0         70       55.4         51       42.3       0.00       0.00
4:50am            251        8.0       21.0         68       41.8      29.97       32.0      0.060       24.0       24.0         70       55.4         51       41.8       0.00       0.00
4:55am            175        4.0       21.0         68       41.5      29.97       31.7      0.055       24.0       24.0         70       55.4         51       41.5       0.00       0.00
5:00am            244       18.0       21.0         68       41.2      29.99       31.5      0.071       24.0       24.0         70       55.4         51       41.2       0.00       0.00
5:05am            269       18.0       20.0         68       40.9      29.99       31.2      0.066       24.0       24.0         70       55.4         51       40.9       0.00       0.00
5:10am            237        7.0       20.0         68       40.8      29.99       31.1      0.061       24.0       24.0         70       55.4         51       40.8       0.00       0.00
5:15am            242        8.0       20.0         68       40.6      30.00       30.9      0.063       24.0       24.0         70       55.4         51       40.6       0.00       0.00
5:20am            272       13.0       21.0         67       40.3      30.00       30.2      0.058       24.0       24.0         70       55.4         51       40.3       0.00       0.00
5:25am            285        7.0       21.0         67       40.3      30.00       30.2      0.053       24.0       24.0         70       55.4         51       40.3       0.00       0.00
5:30am            268        4.0       21.0         66       40.1      30.01       29.7      0.060       24.0       24.0         70       55.4         51       40.1       0.00       0.00
5:35am            262        6.0       21.0         66       40.1      30.01       29.7      0.056       24.0       24.0         70       55.4         51       40.1       0.00       0.00
5:40am            279        3.0       21.0         66       40.1      30.01       29.7      0.051       24.0       24.0         70       55.4         51       40.1       0.00       0.00
5:45am            238        6.0       21.0         66       40.1      30.02       29.7      0.061       24.0       24.0         70       55.4         51       40.1       0.00       0.00
5:50am            254        9.0       21.0         66       39.9      30.02       29.5      0.056       24.0       24.0         70       55.4         51       39.9       0.00       0.00
5:55am            264        2.0       21.0         66       39.8      30.02       29.4      0.052       24.0       24.0         70       55.4         51       39.8       0.00       0.00
6:00am            279        2.0       21.0         66       39.6      30.03       29.2      0.060       24.0       24.0         70       55.4         51       39.6       0.00       0.00
6:05am            276        6.0       14.0         66       39.5      30.03       29.1      0.055       24.0       24.0         70       55.4         51       39.5       0.00       0.00
6:10am            271       11.0       19.0         66       39.3      30.03       28.9      0.051       24.0       24.0         70       55.4         51       39.3       0.00       0.00
6:15am            273        3.0       19.0         66       39.3      30.05       28.9      0.060       24.0       24.0         70       55.4         51       39.3       0.00       0.00
6:20am            244        5.0       19.0         67       39.2      30.05       29.2      0.055       24.0       24.0         70       55.4         51       39.2       0.00       0.00
6:25am            273       11.0       19.0         67       39.2      30.05       29.2      0.051       24.0       24.0         70       55.4         51       39.2       0.00       0.00
6:30am            279        5.0       19.0         67       39.2      30.06       29.2      0.059       24.0       24.0         70       55.4         51       39.2       0.00       0.00
6:35am            283        5.0       19.0         67       39.2      30.06       29.2      0.055       24.0       24.0         70       55.4         51       39.2       0.00       0.00
6:40am            259        7.0       19.0         67       39.2      30.06       29.2      0.050       24.0       24.0         70       55.4         51       39.2       0.00       0.00
6:45am            228        7.0       19.0         67       39.1      30.07       29.1      0.058       24.0       24.0         70       55.4         51       39.1       0.00       0.00
6:50am            275        8.0       19.0         67       39.1      30.07       29.1      0.053       24.0       24.0         70       55.4         51       39.1       0.00       0.00
6:55am            268        7.0       19.0         67       38.8      30.07       28.8      0.049       24.0       24.0         70       55.4         51       38.8       0.00       0.00
7:00am            269        6.0       19.0         67       38.8      30.09       28.8      0.058       24.0       24.0         70       55.4         51       38.8       0.00       0.00
7:05am            237        7.0       13.0         67       38.6      30.09       28.6      0.053       24.0       24.0         70       55.4         51       38.6       0.00       0.00
7:10am            256        5.0       13.0         67       38.6      30.09       28.6      0.049       24.0       24.0         70       55.4         51       38.6       0.00       0.00
7:15am            230        3.0       14.0         67       38.5      30.09       28.5      0.052       24.0       24.0         70       55.4         51       38.5       0.00       0.00
7:20am            272        7.0       14.0         67       38.5      30.09       28.5      0.048       24.0       24.0         70       55.4         51       38.5       0.00       0.00
7:25am            256        2.0       14.0         67       38.5      30.09       28.5      0.044       24.0       24.0         70       55.4         51       38.5       0.00       0.00
7:30am            264        6.0       18.0         67       38.5      30.10       28.5      0.052       24.0       24.0         70       55.4         51       38.5       0.00       0.00
7:35am            264        5.0       18.0         67       38.5      30.10       28.5      0.048       24.0       24.0         70       55.4         51       38.5       0.00       0.00
7:40am            273        8.0       18.0         67       38.5      30.10       28.5      0.044       24.0       24.0         70       55.4         51       38.5       0.00       0.00
7:45am            249        7.0       18.0         67       38.5      30.11       28.5      0.045       24.0       24.0         70       55.4         51       38.5       0.00       0.00
7:50am            265        2.0       18.0         67       38.5      30.11       28.5      0.041       24.0       24.0         70       55.4         51       38.5       0.00       0.00
7:55am            259        7.0       18.0         67       38.5      30.11       28.5      0.038       24.0       24.0         70       55.4         51       38.5       0.00       0.00
8:00am            268        5.0       18.0         67       38.5      30.11       28.5      0.040       24.0       24.0         70       55.4         51       38.5       0.00       0.00
8:05am            262        6.0       13.0         67       38.5      30.11       28.5      0.037       24.0       24.0         70       55.4         51       38.5       0.00       0.00
8:10am            268        3.0       13.0         67       38.5      30.11       28.5      0.034       24.0       24.0         70       55.4         51       38.5       0.00       0.00
8:15am            255        3.0       13.0         67       38.5      30.12       28.5      0.042       24.0       24.0         70       55.4         51       38.5       0.00       0.00
8:20am            230        8.0       17.0         67       38.5      30.12       28.5      0.038       24.0       24.0         70       55.4         51       38.5       0.00       0.00
8:25am            175        2.0       17.0         68       38.3      30.12       28.7      0.035       24.0       24.0         70       55.4         51       38.3       0.00       0.00
8:30am            258        2.0       17.0         68       38.3      30.14       28.7      0.043       24.0       24.0         70       55.4         51       38.3       0.00       0.00
8:35am            251       11.0       17.0         68       38.2      30.14       28.6      0.040       24.0       24.0         70       55.4         51       38.2       0.00       0.00
8:40am            276        9.0       20.0         68       38.2      30.14       28.6      0.037       24.0       24.0         70       55.4         51       38.2       0.00       0.00
8:45am            266        6.0       20.0         68       38.2      30.14       28.6      0.039       24.0       24.0         70       55.4         51       38.2       0.00       0.00
8:50am            273        6.0       20.0         68       38.2      30.14       28.6      0.036       24.0       24.0         70       55.4         51       38.2       0.00       0.00
8:55am            259        7.0       20.0         68       38.2      30.14       28.6      0.033       24.0       24.0         70       55.4         51       38.2       0.00       0.00
9:00am            261        8.0       20.0         67       38.2      30.15       28.2      0.036       24.0       24.0         70       55.4         51       38.2       0.00       0.00
9:05am            280       12.0       20.0         66       38.2      30.15       27.9      0.033       24.0       24.0         70       55.4         51       38.2       0.00       0.00
9:10am            264       11.0       20.0         66       38.2      30.15       27.9      0.031       24.0       24.0         70       55.4         51       38.2       0.00       0.00
9:15am            273        9.0       20.0         66       38.2      30.16       27.9      0.041       24.0       24.0         70       55.4         51       38.2       0.00       0.00
9:20am            312        7.0       20.0         66       38.2      30.16       27.9      0.038       24.0       24.0         70       55.4         51       38.2       0.00       0.00
9:25am            259        5.0       20.0         66       38.3      30.16       28.0      0.035       24.0       24.0         70       55.4         51       38.2       0.00       0.00
9:30am            265        8.0       20.0         65       38.3      30.18       27.6      0.054       24.0       24.0         70       55.4         51       38.2       0.00       0.00
9:35am            159        2.0       20.0         65       38.5      30.18       27.8      0.050       24.0       24.0         70       55.4         51       38.2       0.00       0.00
9:40am            265        3.0       20.0         65       38.5      30.18       27.8      0.046       24.0       24.0         70       55.4         51       38.2       0.00       0.00
9:45am            230        8.0       20.0         65       38.5      30.19       27.8      0.050       24.0       24.0         70       55.4         51       38.2       0.00       0.00
9:50am            290        8.0       20.0         64       38.6      30.19       27.5      0.046       24.0       24.0         70       55.4         51       38.2       0.00       0.00
9:55am            163        8.0       20.0         64       38.6      30.19       27.5      0.043       24.0       24.0         70       55.4         51       38.2       0.00       0.00
10:00am           175        7.0       20.0         64       38.8      30.20       27.7      0.047       24.0       24.0         70       55.4         51       38.2       0.00       0.00
10:05am           261        6.0       20.0         63       38.9      30.20       27.4      0.043       24.0       24.0         70       55.4         51       38.2       0.00       0.00
10:10am           173        8.0       20.0         62       39.1      30.20       27.2      0.040       24.0       24.0         70       55.4         51       38.2       0.00       0.00
10:15am           160        5.0       20.0         62       39.2      30.21       27.3      0.044       24.0       24.0         70       55.4         51       38.2       0.00       0.00
10:20am           242       10.0       20.0         62       39.3      30.21       27.4      0.040       24.0       24.0         70       55.4         51       38.2       0.00       0.00
10:25am           231        7.0       20.0         62       39.3      30.21       27.4      0.037       24.0       24.0         70       55.4         51       38.2       0.00       0.00
10:30am           271        5.0       20.0         61       39.5      30.21       27.2      0.042       24.0       24.0         70       55.4         51       38.2       0.00       0.00
10:35am           261        3.0       20.0         61       39.6      30.21       27.3      0.038       24.0       24.0         70       55.4         51       38.2       0.00       0.00
10:40am           282        3.0       20.0         61       39.6      30.21       27.3      0.035       24.0       24.0         70       55.4         51       38.2       0.00       0.00
10:45am           228        2.0       20.0         61       39.8      30.22       27.5      0.036       24.0       24.0         70       55.4         51       38.2       0.00       0.00
10:50am           278        7.0       20.0         62       39.8      30.22       27.9      0.034       24.0       24.0         70       55.4         51       38.2       0.00       0.00
10:55am           261        2.0       20.0         62       39.8      30.22       27.9      0.031       24.0       24.0         70       55.4         51       38.2       0.00       0.00
11:00am           264        2.0       20.0         62       39.8      30.22       27.9      0.032       24.0       24.0         70       55.4         51       38.2       0.00       0.00
11:05am           247        4.0       13.0         61       39.8      30.22       27.5      0.030       24.0       24.0         70       55.4         51       38.2       0.00       0.00
11:10am           272        6.0       13.0         60       39.8      30.22       27.1      0.027       24.0       24.0         70       55.4         51       38.2       0.00       0.00
11:15am           151        5.0       14.0         60       39.8      30.24       27.1      0.039       24.0       24.0         70       55.4         51       38.2       0.00       0.00
11:20am           249        2.0       14.0         60       39.9      30.24       27.2      0.036       24.0       24.0         70       55.4         51       38.2       0.00       0.00
11:25am           172        1.0       14.0         59       40.2      30.24       27.0      0.033       24.0       24.0         70       55.4         51       38.2       0.00       0.00
11:30am           266        3.0       14.0         59       40.3      30.24       27.1      0.036       24.0       24.0         70       55.4         51       38.2       0.00       0.00
11:35am           296       12.0       14.0         58       40.5      30.24       26.9      0.033       24.0       24.0         70       55.4         51       38.2       0.00       0.00
11:40am           266        3.0       17.0         58       40.6      30.24       27.0      0.031       24.0       24.0         70       55.4         51       38.2       0.00       0.00
11:45am           237        8.0       17.0         57       40.8      30.24       26.8      0.027       24.0       24.0         70       55.4         51       38.2       0.00       0.00
11:50am           276        5.0       17.0         57       40.6      30.24       26.6      0.025       24.0       24.0         70       55.4         51       38.2       0.00       0.00
11:55am           247        3.0       17.0         57       40.8      30.24       26.8      0.023       24.0       24.0         70       55.4         51       38.2       0.00       0.00


Yesterday's Data File

1/28/15
Time         Wind Dir   Wind Spd  Wind Gust   Humidity       Temp  Raw Barom  Dew Point Barom Rate Wind Spd H WindGust H Humidity H Temp Out H Humidity L Temp Out L  DailyRain   24HrRain
                            mph        mph          %         F         in         F      in/hr        mph        mph          %         F          %         F         in         in
12:00am           345        0.0        4.0         66       39.9      29.97       29.5     -0.015        4.0        4.0         66       39.9         66       39.9       0.00       0.00
12:05am           347        0.0        0.0         67       39.8      29.97       29.8     -0.014        4.0        4.0         67       39.9         66       39.8       0.00       0.00
12:10am            33        5.0        5.0         67       39.5      29.97       29.5     -0.013        5.0        5.0         67       39.9         66       39.5       0.00       0.00
12:15am            33        1.0        5.0         67       39.6      29.96       29.6     -0.020        5.0        5.0         67       39.9         66       39.5       0.00       0.00
12:20am            33        1.0        5.0         66       39.6      29.96       29.2     -0.018        5.0        5.0         67       39.9         66       39.5       0.00       0.00
12:25am            33        1.0        5.0         67       39.6      29.96       29.6     -0.017        5.0        5.0         67       39.9         66       39.5       0.00       0.00
12:30am            33        0.0        5.0         67       39.5      29.95       29.5     -0.020        5.0        5.0         67       39.9         66       39.5       0.00       0.00
12:35am            33        0.0        5.0         67       39.5      29.95       29.5     -0.019        5.0        5.0         67       39.9         66       39.5       0.00       0.00
12:40am            33        0.0        5.0         67       39.5      29.95       29.5     -0.017        5.0        5.0         67       39.9         66       39.5       0.00       0.00
12:45am            33        0.0        5.0         67       39.6      29.95       29.6     -0.023        5.0        5.0         67       39.9         66       39.5       0.00       0.00
12:50am            33        2.0        5.0         66       39.9      29.95       29.5     -0.021        5.0        5.0         67       39.9         66       39.5       0.00       0.00
12:55am            35        1.0        5.0         65       40.2      29.95       29.4     -0.019        5.0        5.0         67       40.2         65       39.5       0.00       0.00
1:00am             36        3.0        5.0         65       40.3      29.94       29.5     -0.022        5.0        5.0         67       40.3         65       39.5       0.00       0.00
1:05am             38        0.0        4.0         65       40.3      29.94       29.5     -0.021        5.0        5.0         67       40.5         65       39.5       0.00       0.00
1:10am             33        3.0        6.0         65       40.3      29.94       29.5     -0.019        6.0        6.0         67       40.5         65       39.5       0.00       0.00
1:15am             33        1.0        6.0         64       40.6      29.93       29.4     -0.030        6.0        6.0         67       40.6         64       39.5       0.00       0.00
1:20am             32        2.0        6.0         64       40.9      29.93       29.7     -0.028        6.0        6.0         67       40.9         64       39.5       0.00       0.00
1:25am             39        1.0        6.0         64       41.1      29.93       29.9     -0.026        6.0        6.0         67       41.1         64       39.5       0.00       0.00
1:30am             39        0.0        6.0         63       41.1      29.93       29.5     -0.027        6.0        6.0         67       41.2         63       39.5       0.00       0.00
1:35am             39        2.0        6.0         63       40.9      29.93       29.3     -0.024        6.0        6.0         67       41.2         63       39.5       0.00       0.00
1:40am             39        0.0        6.0         64       40.9      29.93       29.7     -0.022        6.0        6.0         67       41.2         63       39.5       0.00       0.00
1:45am             39        1.0        6.0         63       40.9      29.93       29.3     -0.022        6.0        6.0         67       41.2         63       39.5       0.00       0.00
1:50am             39        0.0        6.0         63       40.9      29.93       29.3     -0.020        6.0        6.0         67       41.2         63       39.5       0.00       0.00
1:55am             39        0.0        6.0         64       40.8      29.93       29.6     -0.018        6.0        6.0         67       41.2         63       39.5       0.00       0.00
2:00am             39        1.0        6.0         64       40.8      29.92       29.6     -0.019        6.0        6.0         67       41.2         63       39.5       0.00       0.00
2:05am             39        0.0        4.0         63       40.9      29.92       29.3     -0.017        6.0        6.0         67       41.2         63       39.5       0.00       0.00
2:10am             39        0.0        4.0         63       40.8      29.92       29.2     -0.016        6.0        6.0         67       41.2         63       39.5       0.00       0.00
2:15am             39        0.0        6.0         63       40.6      29.92       29.0     -0.023        6.0        6.0         67       41.2         63       39.5       0.00       0.00
2:20am             39        0.0        6.0         63       40.5      29.92       28.9     -0.021        6.0        6.0         67       41.2         63       39.5       0.00       0.00
2:25am             39        0.0        6.0         64       40.5      29.92       29.3     -0.019        6.0        6.0         67       41.2         63       39.5       0.00       0.00
2:30am             39        1.0        6.0         64       40.5      29.91       29.3     -0.025        6.0        6.0         67       41.2         63       39.5       0.00       0.00
2:35am             38        0.0        6.0         64       40.6      29.91       29.4     -0.023        6.0        6.0         67       41.2         63       39.5       0.00       0.00
2:40am             38        0.0        6.0         63       40.6      29.91       29.0     -0.022        6.0        6.0         67       41.2         63       39.5       0.00       0.00
2:45am             38        1.0        6.0         63       40.6      29.90       29.0     -0.027        6.0        6.0         67       41.2         63       39.5       0.00       0.00
2:50am             38        2.0        6.0         63       40.5      29.90       28.9     -0.025        6.0        6.0         67       41.2         63       39.5       0.00       0.00
2:55am             38        0.0        6.0         64       40.3      29.90       29.1     -0.023        6.0        6.0         67       41.2         63       39.5       0.00       0.00
3:00am             39        2.0        6.0         64       40.3      29.89       29.1     -0.027        6.0        6.0         67       41.2         63       39.5       0.00       0.00
3:05am             39        0.0        2.0         64       40.3      29.89       29.1     -0.025        6.0        6.0         67       41.2         63       39.5       0.00       0.00
3:10am             39        0.0        2.0         64       40.1      29.89       28.9     -0.023        6.0        6.0         67       41.2         63       39.5       0.00       0.00
3:15am             39        0.0        2.0         64       39.9      29.89       28.7     -0.021        6.0        6.0         67       41.2         63       39.5       0.00       0.00
3:20am             39        0.0        2.0         65       39.9      29.89       29.1     -0.019        6.0        6.0         67       41.2         63       39.5       0.00       0.00
3:25am             38        0.0        2.0         64       39.8      29.89       28.6     -0.018        6.0        6.0         67       41.2         63       39.5       0.00       0.00
3:30am             38        0.0        2.0         64       39.8      29.89       28.6     -0.016        6.0        6.0         67       41.2         63       39.5       0.00       0.00
3:35am             39        0.0        2.0         65       39.6      29.89       28.8     -0.015        6.0        6.0         67       41.2         63       39.5       0.00       0.00
3:40am             39        0.0        2.0         65       39.3      29.89       28.5     -0.014        6.0        6.0         67       41.2         63       39.3       0.00       0.00
3:45am             39        0.0        2.0         65       39.2      29.89       28.4     -0.021        6.0        6.0         67       41.2         63       39.2       0.00       0.00
3:50am             39        0.0        2.0         66       39.1      29.89       28.7     -0.020        6.0        6.0         67       41.2         63       39.1       0.00       0.00
3:55am             39        0.0        2.0         66       39.1      29.89       28.7     -0.018        6.0        6.0         67       41.2         63       39.1       0.00       0.00
4:00am             38        0.0        2.0         66       39.1      29.88       28.7     -0.024        6.0        6.0         67       41.2         63       39.1       0.00       0.00
4:05am             39        0.0        0.0         66       38.9      29.88       28.5     -0.022        6.0        6.0         67       41.2         63       38.9       0.00       0.00
4:10am             39        0.0        0.0         66       38.8      29.88       28.4     -0.020        6.0        6.0         67       41.2         63       38.8       0.00       0.00
4:15am             39        0.0        1.0         66       38.9      29.88       28.5     -0.016        6.0        6.0         67       41.2         63       38.8       0.00       0.00
4:20am             39        0.0        1.0         66       39.1      29.88       28.7     -0.015        6.0        6.0         67       41.2         63       38.8       0.00       0.00
4:25am             38        0.0        2.0         66       39.1      29.88       28.7     -0.014        6.0        6.0         67       41.2         63       38.8       0.00       0.00
4:30am             39        0.0        3.0         65       39.2      29.87       28.4     -0.023        6.0        6.0         67       41.2         63       38.8       0.00       0.00
4:35am             39        0.0        3.0         65       39.1      29.87       28.3     -0.021        6.0        6.0         67       41.2         63       38.8       0.00       0.00
4:40am             39        0.0        3.0         66       39.1      29.87       28.7     -0.019        6.0        6.0         67       41.2         63       38.8       0.00       0.00
4:45am             39        0.0        3.0         66       39.2      29.87       28.8     -0.019        6.0        6.0         67       41.2         63       38.8       0.00       0.00
4:50am             39        0.0        3.0         65       39.5      29.87       28.7     -0.017        6.0        6.0         67       41.2         63       38.8       0.00       0.00
4:55am             39        3.0        4.0         65       39.6      29.87       28.8     -0.016        6.0        6.0         67       41.2         63       38.8       0.00       0.00
5:00am             39        1.0        5.0         64       39.9      29.87       28.7     -0.014        6.0        6.0         67       41.2         63       38.8       0.00       0.00
5:05am             39        3.0        3.0         64       39.9      29.87       28.7     -0.013        6.0        6.0         67       41.2         63       38.8       0.00       0.00
5:10am             62        0.0        4.0         64       40.1      29.87       28.9     -0.012        6.0        6.0         67       41.2         63       38.8       0.00       0.00
5:15am             62        0.0        4.0         64       40.1      29.87       28.9     -0.011        6.0        6.0         67       41.2         63       38.8       0.00       0.00
5:20am             62        0.0        4.0         65       39.9      29.87       29.1     -0.010        6.0        6.0         67       41.2         63       38.8       0.00       0.00
5:25am             62        0.0        4.0         65       39.8      29.87       29.0     -0.010        6.0        6.0         67       41.2         63       38.8       0.00       0.00
5:30am             62        0.0        4.0         65       39.8      29.87       29.0     -0.010        6.0        6.0         67       41.2         63       38.8       0.00       0.00
5:35am             62        0.0        4.0         65       39.8      29.87       29.0     -0.009        6.0        6.0         67       41.2         63       38.8       0.00       0.00
5:40am             62        0.0        4.0         65       39.8      29.87       29.0     -0.008        6.0        6.0         67       41.2         63       38.8       0.00       0.00
5:45am             62        1.0        5.0         65       40.1      29.87       29.3     -0.009        6.0        6.0         67       41.2         63       38.8       0.00       0.00
5:50am             67        1.0        6.0         65       40.1      29.87       29.3     -0.008        6.0        6.0         67       41.2         63       38.8       0.00       0.00
5:55am             64        1.0        6.0         65       40.1      29.87       29.3     -0.007        6.0        6.0         67       41.2         63       38.8       0.00       0.00
6:00am             66        0.0        6.0         65       40.2      29.87       29.4     -0.006        6.0        6.0         67       41.2         63       38.8       0.00       0.00
6:05am             66        0.0        2.0         65       40.1      29.87       29.3     -0.005        6.0        6.0         67       41.2         63       38.8       0.00       0.00
6:10am             64        4.0        5.0         66       40.1      29.87       29.7     -0.005        6.0        6.0         67       41.2         63       38.8       0.00       0.00
6:15am             66        2.0        6.0         66       40.2      29.87       29.8     -0.004        6.0        6.0         67       41.2         63       38.8       0.00       0.00
6:20am             66        2.0        6.0         66       40.2      29.87       29.8     -0.004        6.0        6.0         67       41.2         63       38.8       0.00       0.00
6:25am             66        2.0        6.0         65       40.2      29.87       29.4     -0.004        6.0        6.0         67       41.2         63       38.8       0.00       0.00
6:30am             60        2.0        7.0         65       40.2      29.87       29.4     -0.002        7.0        7.0         67       41.2         63       38.8       0.00       0.00
6:35am             60        1.0        7.0         65       40.2      29.87       29.4     -0.002        7.0        7.0         67       41.2         63       38.8       0.00       0.00
6:40am             60        0.0        7.0         66       40.1      29.87       29.7     -0.002        7.0        7.0         67       41.2         63       38.8       0.00       0.00
6:45am             60        0.0        7.0         66       39.9      29.87       29.5      0.000        7.0        7.0         67       41.2         63       38.8       0.00       0.00
6:50am             60        3.0        7.0         66       39.9      29.87       29.5      0.000        7.0        7.0         67       41.2         63       38.8       0.00       0.00
6:55am             60        2.0        7.0         66       39.8      29.87       29.4      0.000        7.0        7.0         67       41.2         63       38.8       0.00       0.00
7:00am             60        0.0        7.0         67       39.6      29.87       29.6      0.000        7.0        7.0         67       41.2         63       38.8       0.00       0.00
7:05am             60        0.0        1.0         67       39.6      29.87       29.6      0.000        7.0        7.0         67       41.2         63       38.8       0.00       0.00
7:10am             60        0.0        2.0         67       39.5      29.87       29.5      0.000        7.0        7.0         67       41.2         63       38.8       0.00       0.00
7:15am             60        0.0        2.0         67       39.5      29.87       29.5     -0.001        7.0        7.0         67       41.2         63       38.8       0.00       0.00
7:20am             60        1.0        2.0         67       39.3      29.87       29.3     -0.001        7.0        7.0         67       41.2         63       38.8       0.00       0.00
7:25am             60        0.0        2.0         68       39.2      29.87       29.5     -0.001        7.0        7.0         68       41.2         63       38.8       0.00       0.00
7:30am             60        0.0        2.0         68       39.2      29.87       29.5     -0.002        7.0        7.0         68       41.2         63       38.8       0.00       0.00
7:35am             60        2.0        3.0         68       39.3      29.87       29.6     -0.002        7.0        7.0         68       41.2         63       38.8       0.00       0.00
7:40am             60        0.0        3.0         68       39.5      29.87       29.8     -0.001        7.0        7.0         68       41.2         63       38.8       0.00       0.00
7:45am             60        2.0        3.0         68       39.6      29.86       29.9     -0.007        7.0        7.0         68       41.2         63       38.8       0.00       0.00
7:50am             60        1.0        3.0         67       40.1      29.86       30.0     -0.007        7.0        7.0         68       41.2         63       38.8       0.00       0.00
7:55am             60        1.0        4.0         67       40.6      29.86       30.5     -0.006        7.0        7.0         68       41.2         63       38.8       0.00       0.00
8:00am             26        1.0        4.0         66       41.2      29.86       30.7     -0.009        7.0        7.0         68       41.2         63       38.8       0.00       0.00
8:05am             42        6.0        6.0         65       41.8      29.86       30.9     -0.008        7.0        7.0         68       41.8         63       38.8       0.00       0.00
8:10am             73        2.0        6.0         64       42.6      29.86       31.3     -0.007        7.0        7.0         68       42.6         63       38.8       0.00       0.00
8:15am             67        3.0        6.0         63       43.2      29.86       31.5     -0.011        7.0        7.0         68       43.2         63       38.8       0.00       0.00
8:20am             67        1.0        6.0         62       43.8      29.86       31.6     -0.010        7.0        7.0         68       43.8         62       38.8       0.00       0.00
8:25am             67        3.0        6.0         62       44.3      29.86       32.1     -0.009        7.0        7.0         68       44.3         61       38.8       0.00       0.00
8:30am             64        2.0        6.0         60       44.9      29.85       31.9     -0.018        7.0        7.0         68       44.9         60       38.8       0.00       0.00
8:35am             62        1.0        7.0         60       45.5      29.85       32.4     -0.017        7.0        7.0         68       45.5         60       38.8       0.00       0.00
8:40am             63        5.0        7.0         59       46.2      29.85       32.7     -0.015        7.0        7.0         68       46.2         58       38.8       0.00       0.00
8:45am             62        2.0        7.0         58       46.8      29.84       32.8     -0.023        7.0        7.0         68       46.8         58       38.8       0.00       0.00
8:50am             56        2.0        8.0         57       47.4      29.84       32.9     -0.021        8.0        8.0         68       47.4         57       38.8       0.00       0.00
8:55am             63        2.0        8.0         56       48.2      29.84       33.3     -0.019        8.0        8.0         68       48.2         56       38.8       0.00       0.00
9:00am             69        3.0        8.0         56       48.9      29.82       33.9     -0.031        8.0        8.0         68       48.9         56       38.8       0.00       0.00
9:05am             84        7.0       11.0         54       49.4      29.82       33.5     -0.028       11.0       11.0         68       49.4         54       38.8       0.00       0.00
9:10am             87        8.0       13.0         53       49.6      29.82       33.2     -0.026       13.0       13.0         68       49.6         53       38.8       0.00       0.00
9:15am             59        4.0       13.0         53       50.1      29.82       33.7     -0.027       13.0       13.0         68       50.1         53       38.8       0.00       0.00
9:20am             80       10.0       13.0         52       50.5      29.82       33.5     -0.025       13.0       13.0         68       50.5         51       38.8       0.00       0.00
9:25am             59        8.0       14.0         52       50.5      29.82       33.5     -0.023       14.0       14.0         68       50.7         51       38.8       0.00       0.00
9:30am             74        2.0       16.0         53       50.4      29.83       33.9     -0.015       16.0       16.0         68       50.7         51       38.8       0.00       0.00
9:35am             88        6.0       16.0         52       50.2      29.83       33.3     -0.014       16.0       16.0         68       50.7         51       38.8       0.00       0.00
9:40am             76        6.0       16.0         52       50.7      29.83       33.7     -0.013       16.0       16.0         68       50.7         51       38.8       0.00       0.00
9:45am             83        5.0       16.0         52       51.3      29.82       34.3     -0.016       16.0       16.0         68       51.3         51       38.8       0.00       0.00
9:50am             83        5.0       16.0         51       52.2      29.82       34.6     -0.014       16.0       16.0         68       52.2         51       38.8       0.00       0.00
9:55am             63        2.0       16.0         50       52.9      29.82       34.8     -0.013       16.0       16.0         68       52.9         50       38.8       0.00       0.00
10:00am           111        8.0       16.0         49       53.6      29.82       34.9     -0.019       16.0       16.0         68       53.6         49       38.8       0.00       0.00
10:05am            66       14.0       14.0         49       54.2      29.82       35.5     -0.018       16.0       16.0         68       54.2         48       38.8       0.00       0.00
10:10am           111        8.0       14.0         47       54.8      29.82       35.0     -0.016       16.0       16.0         68       54.8         47       38.8       0.00       0.00
10:15am            79       10.0       17.0         47       55.4      29.82       35.5     -0.016       17.0       17.0         68       55.4         47       38.8       0.00       0.00
10:20am            87        8.0       17.0         46       55.9      29.82       35.4     -0.015       17.0       17.0         68       55.9         46       38.8       0.00       0.00
10:25am            49        5.0       17.0         46       56.3      29.82       35.8     -0.013       17.0       17.0         68       56.3         46       38.8       0.00       0.00
10:30am            86       13.0       17.0         45       56.6      29.81       35.5     -0.016       17.0       17.0         68       56.6         45       38.8       0.00       0.00
10:35am            60        4.0       21.0         45       56.7      29.81       35.6     -0.015       21.0       21.0         68       56.7         45       38.8       0.00       0.00
10:40am            80        7.0       21.0         45       57.2      29.81       36.1     -0.014       21.0       21.0         68       57.2         44       38.8       0.00       0.00
10:45am            63        7.0       21.0         44       57.5      29.80       35.8     -0.024       21.0       21.0         68       57.5         44       38.8       0.00       0.00
10:50am           114        7.0       21.0         44       57.8      29.80       36.0     -0.023       21.0       21.0         68       57.8         44       38.8       0.00       0.00
10:55am            59        8.0       21.0         43       58.3      29.80       35.9     -0.021       21.0       21.0         68       58.3         43       38.8       0.00       0.00
11:00am            88        6.0       21.0         44       58.6      29.79       36.8     -0.030       21.0       21.0         68       58.6         43       38.8       0.00       0.00
11:05am            59        6.0       12.0         42       59.5      29.79       36.4     -0.027       21.0       21.0         68       59.5         42       38.8       0.00       0.00
11:10am           105       10.0       13.0         42       60.5      29.79       37.3     -0.025       21.0       21.0         68       60.5         41       38.8       0.00       0.00
11:15am            74        7.0       13.0         41       60.5      29.78       36.7     -0.033       21.0       21.0         68       60.5         41       38.8       0.00       0.00
11:20am           108       12.0       16.0         41       60.4      29.78       36.6     -0.030       21.0       21.0         68       60.5         41       38.8       0.00       0.00
11:25am            66        7.0       16.0         41       61.2      29.78       37.3     -0.028       21.0       21.0         68       61.2         41       38.8       0.00       0.00
11:30am            62        7.0       16.0         39       62.1      29.76       36.9     -0.042       21.0       21.0         68       62.1         39       38.8       0.00       0.00
11:35am            59       14.0       16.0         38       62.7      29.76       36.7     -0.038       21.0       21.0         68       62.7         38       38.8       0.00       0.00
11:40am            88       12.0       16.0         38       62.9      29.76       36.9     -0.035       21.0       21.0         68       62.9         38       38.8       0.00       0.00
11:45am           100       10.0       19.0         37       63.4      29.75       36.7     -0.048       21.0       21.0         68       63.4         37       38.8       0.00       0.00
11:50am            79       10.0       19.0         38       64.0      29.75       37.9     -0.044       21.0       21.0         68       64.0         37       38.8       0.00       0.00
11:55am           110        8.0       19.0         37       64.3      29.75       37.5     -0.041       21.0       21.0         68       64.3         36       38.8       0.00       0.00
12:00pm            70       10.0       19.0         36       64.8      29.73       37.2     -0.053       21.0       21.0         68       64.8         36       38.8       0.00       0.00
12:05pm            69       11.0       16.0         35       65.2      29.73       36.9     -0.049       21.0       21.0         68       65.2         35       38.8       0.00       0.00
12:10pm            70        3.0       16.0         35       65.5      29.73       37.1     -0.045       21.0       21.0         68       65.5         35       38.8       0.00       0.00
12:15pm            97        7.0       16.0         35       65.8      29.71       37.4     -0.058       21.0       21.0         68       66.0         35       38.8       0.00       0.00
12:20pm           105       11.0       16.0         35       66.4      29.71       37.9     -0.054       21.0       21.0         68       66.4         35       38.8       0.00       0.00
12:25pm            79       10.0       18.0         35       66.8      29.71       38.3     -0.049       21.0       21.0         68       66.8         34       38.8       0.00       0.00
12:30pm            81        5.0       18.0         34       66.9      29.70       37.6     -0.058       21.0       21.0         68       66.9         34       38.8       0.00       0.00
12:35pm            67        5.0       18.0         34       67.4      29.70       38.1     -0.053       21.0       21.0         68       67.4         34       38.8       0.00       0.00
12:40pm            88       11.0       18.0         33       67.6      29.70       37.5     -0.049       21.0       21.0         68       67.6         33       38.8       0.00       0.00
12:45pm            74       12.0       18.0         33       67.6      29.69       37.5     -0.051       21.0       21.0         68       67.6         32       38.8       0.00       0.00
12:50pm            81       11.0       18.0         33       67.8      29.69       37.7     -0.047       21.0       21.0         68       67.8         32       38.8       0.00       0.00
12:55pm            93        9.0       18.0         32       68.4      29.69       37.4     -0.043       21.0       21.0         68       68.4         32       38.8       0.00       0.00
1:00pm            128        5.0       18.0         31       69.1      29.68       37.2     -0.050       21.0       21.0         68       69.1         31       38.8       0.00       0.00
1:05pm             74       12.0       17.0         31       69.4      29.68       37.5     -0.046       21.0       21.0         68       69.4         31       38.8       0.00       0.00
1:10pm             56       13.0       17.0         32       69.3      29.68       38.2     -0.042       21.0       21.0         68       69.4         31       38.8       0.00       0.00
1:15pm             83        9.0       17.0         31       69.6      29.67       37.7     -0.054       21.0       21.0         68       69.6         31       38.8       0.00       0.00
1:20pm             63        3.0       17.0         31       70.3      29.67       38.3     -0.050       21.0       21.0         68       70.3         31       38.8       0.00       0.00
1:25pm             55        6.0       20.0         31       70.1      29.67       38.1     -0.046       21.0       21.0         68       70.4         30       38.8       0.00       0.00
1:30pm             64       12.0       20.0         31       70.1      29.66       38.1     -0.054       21.0       21.0         68       70.4         30       38.8       0.00       0.00
1:35pm            104        7.0       20.0         31       70.1      29.66       38.1     -0.050       21.0       21.0         68       70.4         30       38.8       0.00       0.00
1:40pm             70       12.0       20.0         31       70.1      29.66       38.1     -0.046       21.0       21.0         68       70.4         30       38.8       0.00       0.00
1:45pm             70        4.0       20.0         31       70.3      29.64       38.3     -0.055       21.0       21.0         68       70.4         30       38.8       0.00       0.00
1:50pm             81       13.0       20.0         31       70.4      29.64       38.4     -0.051       21.0       21.0         68       70.4         30       38.8       0.00       0.00
1:55pm             74        4.0       20.0         31       70.6      29.64       38.5     -0.047       21.0       21.0         68       70.6         30       38.8       0.00       0.00
2:00pm             77        5.0       20.0         31       71.3      29.63       39.1     -0.054       21.0       21.0         68       71.3         30       38.8       0.00       0.00
2:05pm             76        5.0       12.0         29       72.0      29.63       38.0     -0.049       21.0       21.0         68       72.0         29       38.8       0.00       0.00
2:10pm             80        5.0       12.0         28       72.5      29.63       37.6     -0.045       21.0       21.0         68       72.5         28       38.8       0.00       0.00
2:15pm             84        5.0       12.0         27       72.7      29.63       36.8     -0.048       21.0       21.0         68       72.8         27       38.8       0.00       0.00
2:20pm             60        0.0       12.0         28       73.0      29.63       38.0     -0.044       21.0       21.0         68       73.0         27       38.8       0.00       0.00
2:25pm            103        4.0       13.0         28       72.8      29.63       37.8     -0.040       21.0       21.0         68       73.0         27       38.8       0.00       0.00
2:30pm             64        4.0       22.0         27       73.0      29.62       37.1     -0.039       22.0       22.0         68       73.0         27       38.8       0.00       0.00
2:35pm             62        6.0       22.0         27       73.0      29.62       37.1     -0.036       22.0       22.0         68       73.0         27       38.8       0.00       0.00
2:40pm             83        5.0       22.0         27       73.2      29.62       37.2     -0.033       22.0       22.0         68       73.2         27       38.8       0.00       0.00
2:45pm            100       12.0       22.0         27       73.5      29.61       37.5     -0.044       22.0       22.0         68       73.5         27       38.8       0.00       0.00
2:50pm             79        5.0       22.0         27       73.7      29.61       37.7     -0.041       22.0       22.0         68       73.7         27       38.8       0.00       0.00
2:55pm             63       11.0       22.0         27       73.3      29.61       37.3     -0.037       22.0       22.0         68       73.7         27       38.8       0.00       0.00
3:00pm             72       12.0       22.0         28       73.2      29.60       38.2     -0.039       22.0       22.0         68       73.7         27       38.8       0.00       0.00
3:05pm             70        7.0       12.0         28       73.3      29.60       38.3     -0.036       22.0       22.0         68       73.7         27       38.8       0.00       0.00
3:10pm             86        9.0       18.0         27       73.3      29.60       37.3     -0.033       22.0       22.0         68       73.7         27       38.8       0.00       0.00
3:15pm            118        8.0       18.0         27       73.5      29.60       37.5     -0.037       22.0       22.0         68       73.7         27       38.8       0.00       0.00
3:20pm             90        7.0       18.0         27       73.9      29.60       37.8     -0.034       22.0       22.0         68       73.9         27       38.8       0.00       0.00
3:25pm             76       13.0       18.0         27       73.9      29.60       37.8     -0.031       22.0       22.0         68       73.9         27       38.8       0.00       0.00
3:30pm            111        8.0       18.0         27       73.7      29.58       37.7     -0.046       22.0       22.0         68       73.9         27       38.8       0.00       0.00
3:35pm             93        2.0       18.0         28       73.5      29.58       38.4     -0.043       22.0       22.0         68       73.9         27       38.8       0.00       0.00
3:40pm             67        6.0       18.0         28       73.5      29.58       38.4     -0.039       22.0       22.0         68       73.9         27       38.8       0.00       0.00
3:45pm             80       11.0       18.0         28       73.3      29.57       38.3     -0.045       22.0       22.0         68       73.9         27       38.8       0.00       0.00
3:50pm             59        6.0       24.0         28       73.2      29.57       38.2     -0.041       24.0       24.0         68       73.9         27       38.8       0.00       0.00
3:55pm             81        8.0       24.0         28       73.2      29.57       38.2     -0.038       24.0       24.0         68       73.9         27       38.8       0.00       0.00
4:00pm             76        8.0       24.0         28       73.2      29.57       38.2     -0.040       24.0       24.0         68       73.9         27       38.8       0.00       0.00
4:05pm             72       14.0       17.0         27       73.0      29.57       37.1     -0.037       24.0       24.0         68       73.9         27       38.8       0.00       0.00
4:10pm             43        8.0       17.0         28       72.7      29.57       37.7     -0.034       24.0       24.0         68       73.9         27       38.8       0.00       0.00
4:15pm             53        9.0       17.0         28       72.5      29.57       37.6     -0.033       24.0       24.0         68       73.9         27       38.8       0.00       0.00
4:20pm             84        6.0       18.0         28       72.5      29.57       37.6     -0.030       24.0       24.0         68       73.9         27       38.8       0.00       0.00
4:25pm             72        8.0       18.0         28       72.5      29.57       37.6     -0.028       24.0       24.0         68       73.9         27       38.8       0.00       0.00
4:30pm             53       12.0       18.0         28       72.3      29.58       37.4     -0.012       24.0       24.0         68       73.9         27       38.8       0.00       0.00
4:35pm             60        6.0       18.0         28       72.1      29.58       37.2     -0.011       24.0       24.0         68       73.9         27       38.8       0.00       0.00
4:40pm            107        8.0       18.0         28       72.0      29.58       37.1     -0.010       24.0       24.0         68       73.9         27       38.8       0.00       0.00
4:45pm             87       10.0       18.0         28       71.8      29.57       37.0     -0.016       24.0       24.0         68       73.9         27       38.8       0.00       0.00
4:50pm             87        6.0       18.0         28       71.8      29.57       37.0     -0.015       24.0       24.0         68       73.9         27       38.8       0.00       0.00
4:55pm             88        7.0       18.0         28       71.6      29.57       36.8     -0.014       24.0       24.0         68       73.9         27       38.8       0.00       0.00
5:00pm             76        4.0       18.0         28       71.5      29.57       36.7     -0.011       24.0       24.0         68       73.9         27       38.8       0.00       0.00
5:05pm             94        3.0       11.0         28       71.3      29.57       36.5     -0.010       24.0       24.0         68       73.9         27       38.8       0.00       0.00
5:10pm             77        6.0       16.0         28       71.1      29.57       36.4     -0.009       24.0       24.0         68       73.9         27       38.8       0.00       0.00
5:15pm             90        6.0       16.0         28       70.9      29.57       36.2     -0.012       24.0       24.0         68       73.9         27       38.8       0.00       0.00
5:20pm             88        5.0       16.0         29       70.6      29.57       36.8     -0.011       24.0       24.0         68       73.9         27       38.8       0.00       0.00
5:25pm             57        4.0       16.0         28       70.4      29.57       35.8     -0.010       24.0       24.0         68       73.9         27       38.8       0.00       0.00
5:30pm            110        8.0       16.0         29       70.3      29.57       36.6     -0.012       24.0       24.0         68       73.9         27       38.8       0.00       0.00
5:35pm             84        6.0       16.0         29       70.3      29.57       36.6     -0.011       24.0       24.0         68       73.9         27       38.8       0.00       0.00
5:40pm             55       11.0       16.0         29       70.1      29.57       36.4     -0.011       24.0       24.0         68       73.9         27       38.8       0.00       0.00
5:45pm             86        7.0       17.0         29       69.9      29.57       36.2     -0.008       24.0       24.0         68       73.9         27       38.8       0.00       0.00
5:50pm             63        6.0       17.0         30       69.6      29.57       36.8     -0.007       24.0       24.0         68       73.9         27       38.8       0.00       0.00
5:55pm            118        1.0       17.0         30       69.4      29.57       36.7     -0.007       24.0       24.0         68       73.9         27       38.8       0.00       0.00
6:00pm            105        5.0       17.0         31       69.1      29.57       37.2     -0.002       24.0       24.0         68       73.9         27       38.8       0.00       0.00
6:05pm            104        6.0        8.0         31       68.8      29.57       37.0     -0.002       24.0       24.0         68       73.9         27       38.8       0.00       0.00
6:10pm            111        7.0       14.0         32       68.4      29.57       37.4     -0.002       24.0       24.0         68       73.9         27       38.8       0.00       0.00
6:15pm            104        3.0       14.0         32       68.3      29.58       37.3      0.002       24.0       24.0         68       73.9         27       38.8       0.00       0.00
6:20pm            101        3.0       14.0         32       67.9      29.58       37.0      0.002       24.0       24.0         68       73.9         27       38.8       0.00       0.00
6:25pm            101        3.0       14.0         33       67.6      29.58       37.5      0.002       24.0       24.0         68       73.9         27       38.8       0.00       0.00
6:30pm            121        4.0       14.0         34       67.3      29.58       38.0      0.006       24.0       24.0         68       73.9         27       38.8       0.00       0.00
6:35pm            125        4.0       14.0         34       67.3      29.58       38.0      0.005       24.0       24.0         68       73.9         27       38.8       0.00       0.00
6:40pm            110        5.0       14.0         35       67.1      29.58       38.6      0.005       24.0       24.0         68       73.9         27       38.8       0.00       0.00
6:45pm            100        3.0       14.0         35       66.8      29.59       38.3      0.010       24.0       24.0         68       73.9         27       38.8       0.00       0.00
6:50pm            149       12.0       14.0         35       66.6      29.59       38.1      0.010       24.0       24.0         68       73.9         27       38.8       0.00       0.00
6:55pm            108        3.0       14.0         36       66.4      29.59       38.7      0.009       24.0       24.0         68       73.9         27       38.8       0.00       0.00
7:00pm            118        2.0       14.0         36       66.1      29.60       38.4      0.019       24.0       24.0         68       73.9         27       38.8       0.00       0.00
7:05pm            125        4.0        8.0         37       65.8      29.60       38.8      0.017       24.0       24.0         68       73.9         27       38.8       0.00       0.00
7:10pm            127        5.0        9.0         37       65.8      29.60       38.8      0.016       24.0       24.0         68       73.9         27       38.8       0.00       0.00
7:15pm            124        2.0        9.0         38       65.8      29.60       39.5      0.021       24.0       24.0         68       73.9         27       38.8       0.00       0.00
7:20pm             97        8.0       10.0         38       65.5      29.60       39.2      0.019       24.0       24.0         68       73.9         27       38.8       0.00       0.00
7:25pm            112        4.0       12.0         38       65.5      29.60       39.2      0.017       24.0       24.0         68       73.9         27       38.8       0.00       0.00
7:30pm            110        3.0       12.0         39       65.2      29.61       39.6      0.018       24.0       24.0         68       73.9         27       38.8       0.00       0.00
7:35pm            124        5.0       12.0         39       64.8      29.61       39.3      0.017       24.0       24.0         68       73.9         27       38.8       0.00       0.00
7:40pm            125        3.0       12.0         39       64.8      29.61       39.3      0.015       24.0       24.0         68       73.9         27       38.8       0.00       0.00
7:45pm            138        3.0       12.0         39       64.8      29.61       39.3      0.022       24.0       24.0         68       73.9         27       38.8       0.00       0.00
7:50pm            128        5.0       12.0         39       64.7      29.61       39.2      0.020       24.0       24.0         68       73.9         27       38.8       0.00       0.00
7:55pm            125        6.0       12.0         38       64.7      29.61       38.5      0.019       24.0       24.0         68       73.9         27       38.8       0.00       0.00
8:00pm            134        7.0       13.0         38       64.7      29.62       38.5      0.023       24.0       24.0         68       73.9         27       38.8       0.00       0.00
8:05pm            138        3.0        7.0         38       64.5      29.62       38.4      0.021       24.0       24.0         68       73.9         27       38.8       0.00       0.00
8:10pm            136        4.0       11.0         37       64.7      29.62       37.9      0.019       24.0       24.0         68       73.9         27       38.8       0.00       0.00
8:15pm            136        3.0       11.0         38       64.5      29.61       38.4      0.013       24.0       24.0         68       73.9         27       38.8       0.00       0.00
8:20pm            138        1.0       11.0         38       64.3      29.61       38.2      0.012       24.0       24.0         68       73.9         27       38.8       0.00       0.00
8:25pm            144        4.0       11.0         38       64.0      29.61       37.9      0.011       24.0       24.0         68       73.9         27       38.8       0.00       0.00
8:30pm            138        2.0       11.0         38       63.9      29.62       37.8      0.018       24.0       24.0         68       73.9         27       38.8       0.00       0.00
8:35pm            136        6.0       11.0         39       63.5      29.62       38.1      0.017       24.0       24.0         68       73.9         27       38.8       0.00       0.00
8:40pm            125        3.0       11.0         39       63.4      29.62       38.0      0.015       24.0       24.0         68       73.9         27       38.8       0.00       0.00
8:45pm            129        2.0       11.0         39       63.1      29.62       37.8      0.016       24.0       24.0         68       73.9         27       38.8       0.00       0.00
8:50pm            131        3.0       11.0         39       62.7      29.62       37.4      0.015       24.0       24.0         68       73.9         27       38.8       0.00       0.00
8:55pm            131        3.0       11.0         39       62.7      29.62       37.4      0.014       24.0       24.0         68       73.9         27       38.8       0.00       0.00
9:00pm            129        2.0       11.0         40       62.4      29.63       37.8      0.015       24.0       24.0         68       73.9         27       38.8       0.00       0.00
9:05pm            129        3.0        5.0         40       62.3      29.63       37.7      0.014       24.0       24.0         68       73.9         27       38.8       0.00       0.00
9:10pm            129        2.0        5.0         40       62.0      29.63       37.4      0.013       24.0       24.0         68       73.9         27       38.8       0.00       0.00
9:15pm            129        2.0        8.0         40       61.6      29.63       37.1      0.012       24.0       24.0         68       73.9         27       38.8       0.00       0.00
9:20pm            141        5.0        8.0         41       61.5      29.63       37.6      0.011       24.0       24.0         68       73.9         27       38.8       0.00       0.00
9:25pm            139        5.0        8.0         41       61.3      29.63       37.4      0.010       24.0       24.0         68       73.9         27       38.8       0.00       0.00
9:30pm            107        2.0        8.0         42       60.9      29.63       37.7      0.008       24.0       24.0         68       73.9         27       38.8       0.00       0.00
9:35pm            144        0.0        8.0         41       60.7      29.63       36.9      0.008       24.0       24.0         68       73.9         27       38.8       0.00       0.00
9:40pm            228        1.0        8.0         42       60.5      29.63       37.3      0.007       24.0       24.0         68       73.9         27       38.8       0.00       0.00
9:45pm            144        2.0        8.0         42       60.2      29.64       37.0      0.015       24.0       24.0         68       73.9         27       38.8       0.00       0.00
9:50pm            144        2.0        8.0         42       59.9      29.64       36.8      0.014       24.0       24.0         68       73.9         27       38.8       0.00       0.00
9:55pm            145        0.0        8.0         43       59.6      29.64       37.1      0.013       24.0       24.0         68       73.9         27       38.8       0.00       0.00
10:00pm           145        0.0        8.0         43       59.3      29.64       36.8      0.015       24.0       24.0         68       73.9         27       38.8       0.00       0.00
10:05pm           145        2.0        5.0         43       59.0      29.64       36.6      0.014       24.0       24.0         68       73.9         27       38.8       0.00       0.00
10:10pm           141        0.0        5.0         43       58.9      29.64       36.5      0.013       24.0       24.0         68       73.9         27       38.8       0.00       0.00
10:15pm           141        3.0        5.0         43       58.7      29.64       36.3      0.011       24.0       24.0         68       73.9         27       38.8       0.00       0.00
10:20pm           139        2.0        6.0         42       58.7      29.64       35.7      0.010       24.0       24.0         68       73.9         27       38.8       0.00       0.00
10:25pm           144        2.0        6.0         41       59.0      29.64       35.4      0.009       24.0       24.0         68       73.9         27       38.8       0.00       0.00
10:30pm           234        1.0       10.0         40       59.5      29.65       35.2      0.015       24.0       24.0         68       73.9         27       38.8       0.00       0.00
10:35pm           156        3.0       12.0         39       59.8      29.65       34.8      0.014       24.0       24.0         68       73.9         27       38.8       0.00       0.00
10:40pm           159        2.0       12.0         38       60.1      29.65       34.4      0.013       24.0       24.0         68       73.9         27       38.8       0.00       0.00
10:45pm           156        5.0       12.0         38       60.2      29.65       34.5      0.020       24.0       24.0         68       73.9         27       38.8       0.00       0.00
10:50pm           175        0.0       12.0         39       60.1      29.65       35.1      0.018       24.0       24.0         68       73.9         27       38.8       0.00       0.00
10:55pm           232        0.0       12.0         39       60.1      29.65       35.1      0.017       24.0       24.0         68       73.9         27       38.8       0.00       0.00
11:00pm           264        3.0       12.0         40       59.8      29.66       35.5      0.020       24.0       24.0         68       73.9         27       38.8       0.00       0.00
11:05pm           272        2.0       12.0         40       59.5      29.66       35.2      0.019       24.0       24.0         68       73.9         27       38.8       0.00       0.00
11:10pm           252        5.0       18.0         41       59.2      29.66       35.5      0.017       24.0       24.0         68       73.9         27       38.8       0.00       0.00
11:15pm           266        7.0       19.0         42       58.9      29.67       35.9      0.025       24.0       24.0         68       73.9         27       38.8       0.00       0.00
11:20pm           271        3.0       19.0         43       58.4      29.67       36.0      0.023       24.0       24.0         68       73.9         27       38.8       0.00       0.00
11:25pm           135        3.0       19.0         44       58.0      29.67       36.2      0.021       24.0       24.0         68       73.9         27       38.8       0.00       0.00
11:30pm           248        6.0       19.0         45       57.5      29.68       36.3      0.034       24.0       24.0         68       73.9         27       38.8       0.00       0.00
11:35pm           275        5.0       19.0         46       57.2      29.68       36.6      0.031       24.0       24.0         68       73.9         27       38.8       0.00       0.00
11:40pm           258        3.0       19.0         47       56.7      29.68       36.7      0.029       24.0       24.0         68       73.9         27       38.8       0.00       0.00
11:45pm           247        9.0       19.0         48       56.5      29.70       37.1      0.042       24.0       24.0         68       73.9         27       38.8       0.00       0.00
11:50pm           242        4.0       19.0         50       56.0      29.70       37.6      0.039       24.0       24.0         68       73.9         27       38.8       0.00       0.00
11:55pm           266        2.0       24.0         51       55.7      29.70       37.9      0.036       24.0       24.0         68       73.9         27       38.8       0.00       0.00


Updated Automatically by Ambient Software's Virtual Weather Station  V14.01
All rights reserved. Unauthorized duplication or distribution is prohibited
Never base important decisions on this or any weather information obtained from the Internet